Time;durP1;ratioP1;P1;durP2;ratioP2;P2;SDS_P1;SDS_P2;PMS_P1;PMS_P2;Temp;Humidity;BMP_temperature;BMP_pressure;BME280_temperature;BME280_humidity;BME280_pressure;Samples;Min_cycle;Max_cycle;Signal;HPM_P1;HPM_P2
2023/05/16 00:00:49;;;;;;;4.10;1.30;;;;;;;;;;5037013;28;20132;-76
2023/05/16 00:03:15;;;;;;;1.42;1.17;;;;;;;;;;5032404;28;20073;-76
2023/05/16 00:05:41;;;;;;;1.42;1.10;;;;;;;;;;5037357;28;20112;-76
2023/05/16 00:08:07;;;;;;;2.10;1.30;;;;;;;;;;5033495;28;20156;-76
2023/05/16 00:10:33;;;;;;;2.38;1.48;;;;;;;;;;5035498;28;20042;-75
2023/05/16 00:13:00;;;;;;;3.28;1.60;;;;;;;;;;5031071;28;20021;-76
2023/05/16 00:15:28;;;;;;;1.75;1.33;;;;;;;;;;5030633;28;20026;-76
2023/05/16 00:17:57;;;;;;;1.40;1.10;;;;;;;;;;5032151;28;20025;-77
2023/05/16 00:20:23;;;;;;;2.45;1.63;;;;;;;;;;5035366;28;20032;-76
2023/05/16 00:22:49;;;;;;;1.77;1.40;;;;;;;;;;5023474;28;20079;-76
2023/05/16 00:25:15;;;;;;;1.77;1.63;;;;;;;;;;5021126;28;20029;-76
2023/05/16 00:27:41;;;;;;;1.58;1.20;;;;;;;;;;5026210;28;20018;-76
2023/05/16 00:30:08;;;;;;;1.60;1.10;;;;;;;;;;5029731;28;20391;-76
2023/05/16 00:32:34;;;;;;;1.48;1.23;;;;;;;;;;5016734;28;20516;-76
2023/05/16 00:35:00;;;;;;;1.30;1.20;;;;;;;;;;5018552;28;20117;-76
2023/05/16 00:37:26;;;;;;;1.35;1.15;;;;;;;;;;5014290;28;20026;-76
2023/05/16 00:39:52;;;;;;;1.48;1.33;;;;;;;;;;5014579;28;20056;-76
2023/05/16 00:42:21;;;;;;;1.63;1.30;;;;;;;;;;5017257;28;20472;-77
2023/05/16 00:44:47;;;;;;;1.20;1.10;;;;;;;;;;5011183;28;20032;-76
2023/05/16 00:47:13;;;;;;;2.38;1.27;;;;;;;;;;5014452;28;20423;-76
2023/05/16 00:49:40;;;;;;;1.80;1.40;;;;;;;;;;5013612;28;20034;-76
2023/05/16 00:52:06;;;;;;;0.98;0.98;;;;;;;;;;5009395;28;20059;-76
2023/05/16 00:54:32;;;;;;;1.67;1.23;;;;;;;;;;5012364;28;20280;-76
2023/05/16 00:56:58;;;;;;;1.38;1.20;;;;;;;;;;5025685;28;20033;-76
2023/05/16 00:59:25;;;;;;;2.17;1.20;;;;;;;;;;5024265;28;20029;-75
2023/05/16 01:01:51;;;;;;;1.67;1.38;;;;;;;;;;5010935;28;20037;-76
2023/05/16 01:04:18;;;;;;;2.47;1.45;;;;;;;;;;5014597;28;20050;-77
2023/05/16 01:06:44;;;;;;;1.85;1.40;;;;;;;;;;5006891;28;20052;-76
2023/05/16 01:09:11;;;;;;;1.42;1.05;;;;;;;;;;5010660;28;20021;-76
2023/05/16 01:11:51;;;;;;;1.58;1.30;;;;;;;;;;5007606;28;20060;-77
2023/05/16 01:14:32;;;;;;;2.05;1.50;;;;;;;;;;5009570;28;20053;-75
2023/05/16 01:17:05;;;;;;;1.40;1.27;;;;;;;;;;5005375;28;20037;-75
2023/05/16 01:19:57;;;;;;;1.40;1.10;;;;;;;;;;5009417;28;20157;-75
2023/05/16 01:22:26;;;;;;;1.67;1.30;;;;;;;;;;4987204;28;20440;-76
2023/05/16 01:25:04;;;;;;;2.63;1.45;;;;;;;;;;4993224;28;20042;-75
2023/05/16 01:27:31;;;;;;;1.50;1.20;;;;;;;;;;5009777;28;20118;-76
2023/05/16 01:29:57;;;;;;;1.40;1.30;;;;;;;;;;5028061;28;20017;-75
2023/05/16 01:32:23;;;;;;;2.25;1.60;;;;;;;;;;5023911;28;20025;-75
2023/05/16 01:34:50;;;;;;;1.77;1.10;;;;;;;;;;5026864;28;20056;-76
2023/05/16 01:37:23;;;;;;;2.25;1.75;;;;;;;;;;5027676;28;20040;-76
2023/05/16 01:39:57;;;;;;;1.60;1.40;;;;;;;;;;5023499;28;20032;-76
2023/05/16 01:42:25;;;;;;;2.03;1.27;;;;;;;;;;5018340;28;20040;-76
2023/05/16 01:45:08;;;;;;;1.50;1.40;;;;;;;;;;5026999;28;20061;-77
2023/05/16 01:47:36;;;;;;;1.63;1.15;;;;;;;;;;5024464;28;20026;-76
2023/05/16 01:50:09;;;;;;;1.30;1.20;;;;;;;;;;5026440;28;20234;-76
2023/05/16 01:52:42;;;;;;;2.45;1.60;;;;;;;;;;5033299;28;20478;-75
2023/05/16 01:55:11;;;;;;;1.55;1.33;;;;;;;;;;5028562;28;20116;-77
2023/05/16 01:57:38;;;;;;;2.33;1.75;;;;;;;;;;5026818;28;20029;-77
2023/05/16 02:00:04;;;;;;;1.25;1.15;;;;;;;;;;5028469;28;20117;-75
2023/05/16 02:02:31;;;;;;;1.45;1.27;;;;;;;;;;5037510;28;20029;-75
2023/05/16 02:04:57;;;;;;;2.53;1.58;;;;;;;;;;5035366;28;20120;-75
2023/05/16 02:07:23;;;;;;;1.50;1.40;;;;;;;;;;5033536;28;20380;-76
2023/05/16 02:09:49;;;;;;;1.90;1.48;;;;;;;;;;5026230;28;20029;-75
2023/05/16 02:12:17;;;;;;;2.20;1.63;;;;;;;;;;5030518;28;20028;-76
2023/05/16 02:14:43;;;;;;;1.05;0.98;;;;;;;;;;5026697;28;20033;-76
2023/05/16 02:17:09;;;;;;;1.35;1.20;;;;;;;;;;5025738;28;20104;-76
2023/05/16 02:19:35;;;;;;;2.67;1.40;;;;;;;;;;5028056;28;20029;-75
2023/05/16 02:22:01;;;;;;;1.75;1.15;;;;;;;;;;5027236;28;20032;-76
2023/05/16 02:24:27;;;;;;;2.22;1.50;;;;;;;;;;5035229;28;20599;-76
2023/05/16 02:26:53;;;;;;;2.10;1.33;;;;;;;;;;5026948;28;20029;-75
2023/05/16 02:29:19;;;;;;;1.67;1.25;;;;;;;;;;5028175;28;20022;-76
2023/05/16 02:31:45;;;;;;;1.45;1.30;;;;;;;;;;5025768;28;20045;-75
2023/05/16 02:34:11;;;;;;;1.38;1.23;;;;;;;;;;5032272;28;20033;-76
2023/05/16 02:36:37;;;;;;;2.10;1.35;;;;;;;;;;5017928;28;20029;-76
2023/05/16 02:39:08;;;;;;;2.92;1.30;;;;;;;;;;5027837;28;20484;-75
2023/05/16 02:41:34;;;;;;;;;;;;;;;;;;5027298;28;20033;-76
2023/05/16 02:44:00;;;;;;;2.97;1.40;;;;;;;;;;5025737;28;19919;-75
2023/05/16 02:46:29;;;;;;;1.52;1.05;;;;;;;;;;5027686;28;20025;-76
2023/05/16 02:48:57;;;;;;;2.10;1.48;;;;;;;;;;5025786;28;20037;-76
2023/05/16 02:51:24;;;;;;;2.42;1.33;;;;;;;;;;5027444;28;20021;-75
2023/05/16 02:53:50;;;;;;;1.40;1.30;;;;;;;;;;5027742;28;20032;-76
2023/05/16 02:56:17;;;;;;;1.40;1.15;;;;;;;;;;5030415;28;20037;-76
2023/05/16 02:58:44;;;;;;;1.42;1.17;;;;;;;;;;5025473;28;20570;-76
2023/05/16 03:01:10;;;;;;;1.08;1.02;;;;;;;;;;5026829;28;20028;-76
2023/05/16 03:03:36;;;;;;;1.60;1.42;;;;;;;;;;5026552;28;20045;-75
2023/05/16 03:06:03;;;;;;;2.20;1.30;;;;;;;;;;5032282;28;20032;-75
2023/05/16 03:08:29;;;;;;;2.47;1.40;;;;;;;;;;5026918;28;20033;-76
2023/05/16 03:10:55;;;;;;;1.63;1.30;;;;;;;;;;5027389;28;20071;-76
2023/05/16 03:13:21;;;;;;;1.27;1.17;;;;;;;;;;5007957;28;20037;-75
2023/05/16 03:15:47;;;;;;;4.57;1.52;;;;;;;;;;5015364;28;20025;-76
2023/05/16 03:18:14;;;;;;;3.13;1.45;;;;;;;;;;5014975;28;20109;-76
2023/05/16 03:20:40;;;;;;;1.48;1.33;;;;;;;;;;5026080;28;20088;-75
2023/05/16 03:23:07;;;;;;;2.55;1.45;;;;;;;;;;5023477;28;20021;-76
2023/05/16 03:25:33;;;;;;;2.05;1.70;;;;;;;;;;5025923;28;20099;-76
2023/05/16 03:27:59;;;;;;;1.40;1.30;;;;;;;;;;5021454;28;20037;-76
2023/05/16 03:30:25;;;;;;;1.20;1.10;;;;;;;;;;5019030;28;20116;-75
2023/05/16 03:32:52;;;;;;;2.35;1.67;;;;;;;;;;5024603;28;20614;-75
2023/05/16 03:35:18;;;;;;;3.42;1.30;;;;;;;;;;5031536;28;20128;-79
2023/05/16 03:37:44;;;;;;;2.17;1.55;;;;;;;;;;5008596;28;20030;-76
2023/05/16 03:40:10;;;;;;;1.50;1.40;;;;;;;;;;5016819;28;20028;-77
2023/05/16 03:42:36;;;;;;;1.67;1.27;;;;;;;;;;5024859;28;20112;-76
2023/05/16 03:45:02;;;;;;;1.83;1.52;;;;;;;;;;5026347;28;20116;-76
2023/05/16 03:47:30;;;;;;;1.55;1.42;;;;;;;;;;5025411;28;20476;-76
2023/05/16 03:49:56;;;;;;;2.00;1.35;;;;;;;;;;5025101;28;20179;-76
2023/05/16 03:52:22;;;;;;;3.20;1.98;;;;;;;;;;5026590;28;20029;-76
2023/05/16 03:54:48;;;;;;;1.40;1.30;;;;;;;;;;5024813;28;20045;-75
2023/05/16 03:57:15;;;;;;;2.22;1.70;;;;;;;;;;5031446;28;20037;-76
2023/05/16 03:59:44;;;;;;;1.92;1.63;;;;;;;;;;5025770;28;20036;-76
2023/05/16 04:02:10;;;;;;;2.08;1.50;;;;;;;;;;5026634;28;20478;-76
2023/05/16 04:04:39;;;;;;;1.33;1.23;;;;;;;;;;5029584;28;20056;-77
2023/05/16 04:07:05;;;;;;;1.75;1.30;;;;;;;;;;5036059;28;20052;-76
2023/05/16 04:09:31;;;;;;;2.03;1.70;;;;;;;;;;5027722;28;20021;-76
2023/05/16 04:12:00;;;;;;;1.20;1.10;;;;;;;;;;5028157;28;20037;-77
2023/05/16 04:14:29;;;;;;;1.73;1.30;;;;;;;;;;5029206;28;20026;-76
2023/05/16 04:16:55;;;;;;;1.80;1.45;;;;;;;;;;5033331;28;20025;-76
2023/05/16 04:19:21;;;;;;;1.70;1.38;;;;;;;;;;5029349;28;20558;-77
2023/05/16 04:21:47;;;;;;;1.80;1.42;;;;;;;;;;5030282;28;20427;-76
2023/05/16 04:24:13;;;;;;;2.13;1.23;;;;;;;;;;5022842;28;20018;-75
2023/05/16 04:26:39;;;;;;;1.60;1.42;;;;;;;;;;5022211;28;20029;-77
2023/05/16 04:29:06;;;;;;;1.75;1.10;;;;;;;;;;5040590;28;20037;-77
2023/05/16 04:31:31;;;;;;;4.65;2.00;;;;;;;;;;5029545;28;20029;-77
2023/05/16 04:33:57;;;;;;;1.40;1.25;;;;;;;;;;5027816;28;20025;-76
2023/05/16 04:36:23;;;;;;;1.75;1.30;;;;;;;;;;5029869;28;20372;-76
2023/05/16 04:38:49;;;;;;;2.38;1.50;;;;;;;;;;5029385;28;20060;-76
2023/05/16 04:41:16;;;;;;;1.38;1.13;;;;;;;;;;5029057;28;20032;-76
2023/05/16 04:43:42;;;;;;;3.13;1.38;;;;;;;;;;5028570;28;20021;-76
2023/05/16 04:46:08;;;;;;;2.08;1.35;;;;;;;;;;5031410;28;20132;-75
2023/05/16 04:48:34;;;;;;;1.75;1.30;;;;;;;;;;5024661;28;20464;-76
2023/05/16 04:51:00;;;;;;;2.25;1.17;;;;;;;;;;5027724;28;20112;-76
2023/05/16 04:53:27;;;;;;;1.85;1.20;;;;;;;;;;5029789;28;20531;-75
2023/05/16 04:55:53;;;;;;;1.83;1.38;;;;;;;;;;5028380;28;20029;-75
2023/05/16 04:58:19;;;;;;;1.30;1.17;;;;;;;;;;5027704;28;20091;-75
2023/05/16 05:00:46;;;;;;;1.77;1.40;;;;;;;;;;5031744;28;20040;-77
2023/05/16 05:03:12;;;;;;;1.98;1.02;;;;;;;;;;5027735;28;20064;-77
2023/05/16 05:05:38;;;;;;;1.67;1.52;;;;;;;;;;5029178;28;20046;-76
2023/05/16 05:08:04;;;;;;;1.67;1.35;;;;;;;;;;5026996;28;20032;-76
2023/05/16 05:10:30;;;;;;;1.45;1.35;;;;;;;;;;5028232;28;20073;-76
2023/05/16 05:12:57;;;;;;;1.67;1.58;;;;;;;;;;5028841;28;20029;-76
2023/05/16 05:15:23;;;;;;;1.67;1.42;;;;;;;;;;5029418;28;20021;-80
2023/05/16 05:17:49;;;;;;;2.55;1.52;;;;;;;;;;5029578;28;20041;-82
2023/05/16 05:20:15;;;;;;;1.27;1.13;;;;;;;;;;5028470;28;20021;-76
2023/05/16 05:22:41;;;;;;;1.45;1.30;;;;;;;;;;5027126;28;20025;-76
2023/05/16 05:25:07;;;;;;;2.33;1.38;;;;;;;;;;5028677;28;20040;-76
2023/05/16 05:27:36;;;;;;;1.10;0.98;;;;;;;;;;5029105;28;20026;-76
2023/05/16 05:30:03;;;;;;;5.22;1.52;;;;;;;;;;5027093;28;20635;-76
2023/05/16 05:32:29;;;;;;;1.50;1.38;;;;;;;;;;5028931;28;20022;-76
2023/05/16 05:34:55;;;;;;;2.95;1.50;;;;;;;;;;5019144;28;20029;-76
2023/05/16 05:37:21;;;;;;;1.98;1.30;;;;;;;;;;5016869;28;20025;-76
2023/05/16 05:39:47;;;;;;;2.13;1.45;;;;;;;;;;5027693;28;20033;-76
2023/05/16 05:42:13;;;;;;;1.75;1.30;;;;;;;;;;5033768;28;20056;-76
2023/05/16 05:44:39;;;;;;;1.30;1.17;;;;;;;;;;5028589;28;20033;-76
2023/05/16 05:47:06;;;;;;;2.47;1.15;;;;;;;;;;5028520;28;20024;-77
2023/05/16 05:49:32;;;;;;;1.63;1.20;;;;;;;;;;5028114;28;20108;-78
2023/05/16 05:51:58;;;;;;;1.77;1.48;;;;;;;;;;5028245;28;20034;-77
2023/05/16 05:54:24;;;;;;;1.35;1.25;;;;;;;;;;5028529;28;20049;-77
2023/05/16 05:56:50;;;;;;;2.28;1.10;;;;;;;;;;5027745;28;20041;-76
2023/05/16 05:59:16;;;;;;;1.38;1.15;;;;;;;;;;5028237;28;20034;-78
2023/05/16 06:01:43;;;;;;;1.23;1.00;;;;;;;;;;5024635;28;20033;-78
2023/05/16 06:04:10;;;;;;;2.15;1.60;;;;;;;;;;5028471;28;20044;-78
2023/05/16 06:06:36;;;;;;;1.70;1.30;;;;;;;;;;5040475;28;20025;-78
2023/05/16 06:09:02;;;;;;;1.88;1.40;;;;;;;;;;5028412;28;20080;-76
2023/05/16 06:11:28;;;;;;;3.42;1.25;;;;;;;;;;5028260;28;20025;-78
2023/05/16 06:13:54;;;;;;;1.33;1.13;;;;;;;;;;5026632;28;20033;-78
2023/05/16 06:16:26;;;;;;;3.58;1.30;;;;;;;;;;5028129;28;20484;-77
2023/05/16 06:18:52;;;;;;;3.20;1.65;;;;;;;;;;5022614;28;20125;-78
2023/05/16 06:21:18;;;;;;;1.80;1.23;;;;;;;;;;5028026;28;20025;-77
2023/05/16 06:23:44;;;;;;;1.33;1.13;;;;;;;;;;5032666;28;20044;-77
2023/05/16 06:26:10;;;;;;;1.63;1.20;;;;;;;;;;5027815;28;20089;-77
2023/05/16 06:28:36;;;;;;;1.55;1.35;;;;;;;;;;5027920;28;20089;-76
2023/05/16 06:31:02;;;;;;;1.88;1.23;;;;;;;;;;5023938;28;20025;-77
2023/05/16 06:33:28;;;;;;;1.38;1.20;;;;;;;;;;5031481;28;20022;-78
2023/05/16 06:35:54;;;;;;;1.98;1.50;;;;;;;;;;5027810;28;20151;-78
2023/05/16 06:38:20;;;;;;;1.38;1.00;;;;;;;;;;5027469;28;20013;-77
2023/05/16 06:40:46;;;;;;;2.17;1.40;;;;;;;;;;5029287;28;20029;-77
2023/05/16 06:43:12;;;;;;;1.95;0.90;;;;;;;;;;5029236;28;20033;-78
2023/05/16 06:45:38;;;;;;;1.95;1.35;;;;;;;;;;5024415;28;20041;-77
2023/05/16 06:48:05;;;;;;;4.38;1.00;;;;;;;;;;5026771;28;20018;-77
2023/05/16 06:50:31;;;;;;;2.40;1.10;;;;;;;;;;5009359;28;20384;-77
2023/05/16 06:52:57;;;;;;;1.60;1.15;;;;;;;;;;5024720;28;20032;-77
2023/05/16 06:55:23;;;;;;;1.67;1.25;;;;;;;;;;5027300;28;20037;-77
2023/05/16 06:57:50;;;;;;;2.88;1.10;;;;;;;;;;5027410;28;20022;-79
2023/05/16 07:00:16;;;;;;;1.25;1.00;;;;;;;;;;5024473;28;20045;-78
2023/05/16 07:02:42;;;;;;;1.08;1.00;;;;;;;;;;5030332;28;20033;-79
2023/05/16 07:05:08;;;;;;;2.63;1.20;;;;;;;;;;5033876;28;20052;-78
2023/05/16 07:07:34;;;;;;;3.55;1.77;;;;;;;;;;5029701;28;20029;-76
2023/05/16 07:10:00;;;;;;;2.25;1.10;;;;;;;;;;5025595;28;20029;-78
2023/05/16 07:12:26;;;;;;;1.30;1.02;;;;;;;;;;5025977;28;20498;-78
2023/05/16 07:14:52;;;;;;;1.77;1.10;;;;;;;;;;5034756;28;20032;-78
2023/05/16 07:17:18;;;;;;;1.23;0.93;;;;;;;;;;5026774;28;20472;-78
2023/05/16 07:19:44;;;;;;;1.90;1.10;;;;;;;;;;5025649;28;20443;-78
2023/05/16 07:22:11;;;;;;;3.33;1.23;;;;;;;;;;5027007;28;20025;-78
2023/05/16 07:24:37;;;;;;;1.90;0.98;;;;;;;;;;5012695;28;20037;-77
2023/05/16 07:27:03;;;;;;;1.20;1.00;;;;;;;;;;5027651;28;20030;-76
2023/05/16 07:29:29;;;;;;;1.05;0.98;;;;;;;;;;5026913;28;20022;-77
2023/05/16 07:31:55;;;;;;;1.30;1.20;;;;;;;;;;5025442;28;20032;-77
2023/05/16 07:34:22;;;;;;;2.00;1.20;;;;;;;;;;5034666;28;20032;-76
2023/05/16 07:36:47;;;;;;;1.45;1.15;;;;;;;;;;5031005;28;20064;-77
2023/05/16 07:39:14;;;;;;;1.08;1.00;;;;;;;;;;5024631;28;20029;-77
2023/05/16 07:41:39;;;;;;;1.70;1.13;;;;;;;;;;5026163;28;20044;-76
2023/05/16 07:44:05;;;;;;;3.63;0.80;;;;;;;;;;5008939;28;20528;-77
2023/05/16 07:46:31;;;;;;;1.25;1.13;;;;;;;;;;5025201;28;20026;-77
2023/05/16 07:48:57;;;;;;;1.50;1.10;;;;;;;;;;5027366;28;20033;-77
2023/05/16 07:51:23;;;;;;;0.93;0.90;;;;;;;;;;5037579;28;20021;-77
2023/05/16 07:53:50;;;;;;;2.05;1.25;;;;;;;;;;5029980;28;20091;-77
2023/05/16 07:56:16;;;;;;;0.70;0.70;;;;;;;;;;5040711;28;20127;-77
2023/05/16 07:58:42;;;;;;;1.15;0.90;;;;;;;;;;5030925;28;20500;-77
2023/05/16 08:01:08;;;;;;;1.23;1.13;;;;;;;;;;5029745;28;20033;-76
2023/05/16 08:03:35;;;;;;;0.80;0.80;;;;;;;;;;5030629;28;20022;-76
2023/05/16 08:06:01;;;;;;;1.20;0.93;;;;;;;;;;5034677;28;20440;-77
2023/05/16 08:08:27;;;;;;;0.70;0.70;;;;;;;;;;5029661;28;20113;-77
2023/05/16 08:10:53;;;;;;;1.08;0.95;;;;;;;;;;5027690;28;20030;-76
2023/05/16 08:13:19;;;;;;;0.93;0.88;;;;;;;;;;5028067;28;20032;-77
2023/05/16 08:15:45;;;;;;;0.80;0.80;;;;;;;;;;5029101;28;20675;-75
2023/05/16 08:18:16;;;;;;;1.20;0.98;;;;;;;;;;5027976;28;20037;-74
2023/05/16 08:20:42;;;;;;;;;;;;;;;;;;5029408;28;20025;-76
2023/05/16 08:23:08;;;;;;;0.75;0.75;;;;;;;;;;5026968;28;19909;-75
2023/05/16 08:25:35;;;;;;;1.25;0.98;;;;;;;;;;5027165;28;20033;-75
2023/05/16 08:28:01;;;;;;;0.75;0.70;;;;;;;;;;5026863;28;20441;-74
2023/05/16 08:30:27;;;;;;;2.28;1.05;;;;;;;;;;5027522;28;20527;-74
2023/05/16 08:32:53;;;;;;;1.05;0.95;;;;;;;;;;5028454;28;20061;-75
2023/05/16 08:35:19;;;;;;;1.00;0.80;;;;;;;;;;5035196;28;20728;-74
2023/05/16 08:37:45;;;;;;;4.53;0.90;;;;;;;;;;5028290;28;20049;-74
2023/05/16 08:40:13;;;;;;;0.80;0.80;;;;;;;;;;5025002;28;20037;-75
2023/05/16 08:42:39;;;;;;;0.70;0.70;;;;;;;;;;5028518;28;20700;-74
2023/05/16 08:45:06;;;;;;;1.25;0.90;;;;;;;;;;5027273;28;20033;-75
2023/05/16 08:47:33;;;;;;;1.10;0.82;;;;;;;;;;5028010;28;20030;-74
2023/05/16 08:50:00;;;;;;;0.80;0.80;;;;;;;;;;5025897;28;20018;-74
2023/05/16 08:52:28;;;;;;;1.25;0.75;;;;;;;;;;5027515;28;20602;-74
2023/05/16 08:54:55;;;;;;;0.70;0.70;;;;;;;;;;5033305;28;20038;-73
2023/05/16 08:57:21;;;;;;;1.45;0.82;;;;;;;;;;5027047;28;20038;-73
2023/05/16 08:59:47;;;;;;;0.70;0.70;;;;;;;;;;5027886;28;20204;-72
2023/05/16 09:02:13;;;;;;;0.68;0.65;;;;;;;;;;5027118;28;20021;-72
2023/05/16 09:04:40;;;;;;;0.80;0.80;;;;;;;;;;5033005;28;20047;-73
2023/05/16 09:07:06;;;;;;;0.47;0.47;;;;;;;;;;5000597;28;20029;-73
2023/05/16 09:09:32;;;;;;;0.60;0.60;;;;;;;;;;5026130;28;20041;-71
2023/05/16 09:11:58;;;;;;;1.65;0.80;;;;;;;;;;5023327;28;20033;-72
2023/05/16 09:14:26;;;;;;;0.82;0.82;;;;;;;;;;5027921;28;20025;-76
2023/05/16 09:17:03;;;;;;;0.80;0.80;;;;;;;;;;5027118;28;20029;-72
2023/05/16 09:19:37;;;;;;;0.95;0.73;;;;;;;;;;5018336;28;20033;-74
2023/05/16 09:22:03;;;;;;;1.05;0.80;;;;;;;;;;5025976;28;20025;-76
2023/05/16 09:24:29;;;;;;;1.00;0.90;;;;;;;;;;5027304;28;20451;-76
2023/05/16 09:26:54;;;;;;;1.85;1.00;;;;;;;;;;5026075;28;20029;-77
2023/05/16 09:29:21;;;;;;;0.63;0.63;;;;;;;;;;5026120;28;20123;-75
2023/05/16 09:31:48;;;;;;;0.52;0.52;;;;;;;;;;5031898;28;20022;-75
2023/05/16 09:34:14;;;;;;;1.17;0.55;;;;;;;;;;5025890;28;20511;-75
2023/05/16 09:36:41;;;;;;;0.68;0.68;;;;;;;;;;5026931;28;20025;-75
2023/05/16 09:39:07;;;;;;;1.83;0.80;;;;;;;;;;5025969;28;20031;-75
2023/05/16 09:41:34;;;;;;;0.98;0.73;;;;;;;;;;5023274;28;20029;-75
2023/05/16 09:44:03;;;;;;;1.45;0.98;;;;;;;;;;5027072;28;20025;-75
2023/05/16 09:46:30;;;;;;;0.63;0.63;;;;;;;;;;5025875;28;20532;-75
2023/05/16 09:48:58;;;;;;;1.45;0.60;;;;;;;;;;5026778;28;20580;-75
2023/05/16 09:51:24;;;;;;;1.90;0.60;;;;;;;;;;5031119;28;20026;-75
2023/05/16 09:53:50;;;;;;;0.90;0.80;;;;;;;;;;5025171;28;20033;-78
2023/05/16 09:56:16;;;;;;;1.55;0.80;;;;;;;;;;5025935;28;20037;-78
2023/05/16 09:58:46;;;;;;;1.70;0.60;;;;;;;;;;5024316;28;20025;-78
2023/05/16 10:01:12;;;;;;;1.42;1.02;;;;;;;;;;5028301;28;20071;-77
2023/05/16 10:03:39;;;;;;;0.60;0.60;;;;;;;;;;5023452;28;20045;-76
2023/05/16 10:06:06;;;;;;;0.68;0.68;;;;;;;;;;5028352;28;20080;-76
2023/05/16 10:08:36;;;;;;;3.05;0.75;;;;;;;;;;5025913;28;20056;-75
2023/05/16 10:11:03;;;;;;;1.38;0.77;;;;;;;;;;5024960;28;20028;-76
2023/05/16 10:13:30;;;;;;;3.53;0.55;;;;;;;;;;5026081;28;20033;-76
2023/05/16 10:15:56;;;;;;;1.05;0.63;;;;;;;;;;5025791;28;20797;-75
2023/05/16 10:18:24;;;;;;;1.50;0.60;;;;;;;;;;5026312;28;20701;-76
2023/05/16 10:20:53;;;;;;;2.22;0.70;;;;;;;;;;5025170;28;20501;-77
2023/05/16 10:23:20;;;;;;;0.90;0.90;;;;;;;;;;5024456;28;20571;-75
2023/05/16 10:25:47;;;;;;;2.67;0.80;;;;;;;;;;5023497;28;20439;-75
2023/05/16 10:28:15;;;;;;;0.65;0.65;;;;;;;;;;5025763;28;20079;-77
2023/05/16 10:30:43;;;;;;;2.88;0.68;;;;;;;;;;5023335;28;20053;-75
2023/05/16 10:33:09;;;;;;;1.80;0.90;;;;;;;;;;5027001;28;20086;-75
2023/05/16 10:35:36;;;;;;;0.77;0.68;;;;;;;;;;5024542;28;20168;-76
2023/05/16 10:38:03;;;;;;;1.38;0.75;;;;;;;;;;5027862;28;20026;-75
2023/05/16 10:40:30;;;;;;;0.77;0.77;;;;;;;;;;5025131;28;20034;-76
2023/05/16 10:42:56;;;;;;;0.70;0.70;;;;;;;;;;5023857;28;20034;-75
2023/05/16 10:45:22;;;;;;;2.70;0.90;;;;;;;;;;5028138;28;20391;-76
2023/05/16 10:48:03;;;;;;;0.70;0.60;;;;;;;;;;5023608;28;20575;-76
2023/05/16 10:50:33;;;;;;;2.58;0.80;;;;;;;;;;5024750;28;20026;-76
2023/05/16 10:53:19;;;;;;;0.88;0.75;;;;;;;;;;5024156;28;20025;-75
2023/05/16 10:56:05;;;;;;;0.98;0.85;;;;;;;;;;5023964;28;20780;-76
2023/05/16 10:58:34;;;;;;;3.53;1.02;;;;;;;;;;5027028;28;20028;-75
2023/05/16 11:01:16;;;;;;;0.52;0.50;;;;;;;;;;5022409;28;20732;-76
2023/05/16 11:03:41;;;;;;;;;;;;;;;;;;5021459;28;20396;-77
2023/05/16 11:06:07;;;;;;;1.40;0.70;;;;;;;;;;5025130;28;19945;-76
2023/05/16 11:08:36;;;;;;;1.88;0.70;;;;;;;;;;5024666;28;20086;-76
2023/05/16 11:11:21;;;;;;;2.30;1.00;;;;;;;;;;5026025;28;20116;-77
2023/05/16 11:13:56;;;;;;;1.10;0.65;;;;;;;;;;5020516;28;20045;-77
2023/05/16 11:16:29;;;;;;;1.92;0.95;;;;;;;;;;5020642;28;20159;-76
2023/05/16 11:19:03;;;;;;;2.10;1.10;;;;;;;;;;5022500;28;20040;-76
2023/05/16 11:21:48;;;;;;;3.38;0.80;;;;;;;;;;5024933;28;20036;-76
2023/05/16 11:24:28;;;;;;;1.48;0.98;;;;;;;;;;5023926;28;20025;-75
2023/05/16 11:26:54;;;;;;;1.65;0.60;;;;;;;;;;5025725;28;20144;-77
2023/05/16 11:29:21;;;;;;;3.17;1.38;;;;;;;;;;5024050;28;20055;-77
2023/05/16 11:31:48;;;;;;;2.25;1.02;;;;;;;;;;5027783;28;20030;-77
2023/05/16 11:34:14;;;;;;;2.05;1.00;;;;;;;;;;5026011;28;20037;-76
2023/05/16 11:36:40;;;;;;;2.25;1.08;;;;;;;;;;5022330;28;20037;-76
2023/05/16 11:39:09;;;;;;;1.05;0.80;;;;;;;;;;5017347;28;20460;-76
2023/05/16 11:41:35;;;;;;;2.35;1.05;;;;;;;;;;5018684;28;20120;-77
2023/05/16 11:44:01;;;;;;;1.55;0.82;;;;;;;;;;5025439;28;20038;-77
2023/05/16 11:46:27;;;;;;;1.10;0.93;;;;;;;;;;5025484;28;20026;-81
2023/05/16 11:48:53;;;;;;;1.15;0.88;;;;;;;;;;5027002;28;20125;-81
2023/05/16 11:51:20;;;;;;;0.90;0.60;;;;;;;;;;5023282;28;20065;-81
2023/05/16 11:53:49;;;;;;;2.03;1.15;;;;;;;;;;5028109;28;20010;-80
2023/05/16 11:56:15;;;;;;;0.82;0.70;;;;;;;;;;5022185;28;20117;-80
2023/05/16 11:58:41;;;;;;;1.00;0.88;;;;;;;;;;5024638;28;20456;-80
2023/05/16 12:01:09;;;;;;;1.10;0.57;;;;;;;;;;5025879;28;20735;-80
2023/05/16 12:03:35;;;;;;;0.90;0.65;;;;;;;;;;5037173;28;20029;-81
2023/05/16 12:06:01;;;;;;;0.70;0.70;;;;;;;;;;5027204;28;20029;-80
2023/05/16 12:08:28;;;;;;;1.63;0.93;;;;;;;;;;5037655;28;20030;-80
2023/05/16 12:10:54;;;;;;;2.13;0.65;;;;;;;;;;5027211;28;20036;-79
2023/05/16 12:13:21;;;;;;;1.98;0.80;;;;;;;;;;5030244;28;20029;-81
2023/05/16 12:15:47;;;;;;;1.90;0.98;;;;;;;;;;5027258;28;20036;-80
2023/05/16 12:18:14;;;;;;;0.80;0.65;;;;;;;;;;5032540;28;20030;-79
2023/05/16 12:20:40;;;;;;;1.67;0.90;;;;;;;;;;5026610;28;20598;-81
2023/05/16 12:23:10;;;;;;;0.77;0.75;;;;;;;;;;5034946;28;20033;-80
2023/05/16 12:25:42;;;;;;;1.45;1.02;;;;;;;;;;5029282;28;20026;-79
2023/05/16 12:28:08;;;;;;;4.35;0.88;;;;;;;;;;5015102;28;20018;-83
2023/05/16 12:30:35;;;;;;;2.10;0.77;;;;;;;;;;5027584;28;20021;-85
2023/05/16 12:33:08;;;;;;;1.38;0.80;;;;;;;;;;5013252;28;20025;-83
2023/05/16 12:35:35;;;;;;;1.88;0.73;;;;;;;;;;5029216;28;20033;-85
2023/05/16 12:38:04;;;;;;;1.67;1.20;;;;;;;;;;5029992;28;20480;-83
2023/05/16 12:40:31;;;;;;;2.42;0.80;;;;;;;;;;5039276;28;20025;-82
2023/05/16 12:42:57;;;;;;;0.93;0.70;;;;;;;;;;5036082;28;20045;-77
2023/05/16 12:45:23;;;;;;;1.88;1.17;;;;;;;;;;5041879;28;20435;-75
2023/05/16 12:47:50;;;;;;;0.40;0.40;;;;;;;;;;5029831;28;20056;-75
2023/05/16 12:50:16;;;;;;;1.10;0.60;;;;;;;;;;5032884;28;20051;-76
2023/05/16 12:52:52;;;;;;;1.20;0.43;;;;;;;;;;5032393;28;20032;-74
2023/05/16 12:55:19;;;;;;;1.13;0.70;;;;;;;;;;5028582;28;20025;-75
2023/05/16 12:57:46;;;;;;;2.88;1.00;;;;;;;;;;5029252;28;20033;-75
2023/05/16 13:00:13;;;;;;;0.80;0.60;;;;;;;;;;5032023;28;20037;-76
2023/05/16 13:02:39;;;;;;;1.85;0.93;;;;;;;;;;5030886;28;20030;-77
2023/05/16 13:05:09;;;;;;;1.15;0.47;;;;;;;;;;5036502;28;20112;-73
2023/05/16 13:07:35;;;;;;;1.55;0.82;;;;;;;;;;5033681;28;20227;-74
2023/05/16 13:10:01;;;;;;;0.75;0.60;;;;;;;;;;5028493;28;20649;-74
2023/05/16 13:12:27;;;;;;;0.90;0.60;;;;;;;;;;5028224;28;20494;-75
2023/05/16 13:14:53;;;;;;;0.40;0.40;;;;;;;;;;5026506;28;20116;-75
2023/05/16 13:17:19;;;;;;;1.40;0.80;;;;;;;;;;5029535;28;20026;-75
2023/05/16 13:19:45;;;;;;;3.80;0.93;;;;;;;;;;5027653;28;20029;-75
2023/05/16 13:22:11;;;;;;;1.73;0.85;;;;;;;;;;5024494;28;20036;-74
2023/05/16 13:24:42;;;;;;;1.05;0.60;;;;;;;;;;5028973;28;20021;-74
2023/05/16 13:27:08;;;;;;;0.93;0.68;;;;;;;;;;5026563;28;20021;-74
2023/05/16 13:29:34;;;;;;;1.17;0.75;;;;;;;;;;5026573;28;20020;-75
2023/05/16 13:32:03;;;;;;;0.70;0.70;;;;;;;;;;5036799;28;20439;-75
2023/05/16 13:34:29;;;;;;;1.17;0.85;;;;;;;;;;5038753;28;20439;-74
2023/05/16 13:36:58;;;;;;;0.82;0.68;;;;;;;;;;5029438;28;20041;-76
2023/05/16 13:39:24;;;;;;;0.63;0.47;;;;;;;;;;5029353;28;20013;-74
2023/05/16 13:41:50;;;;;;;0.73;0.50;;;;;;;;;;5032152;28;20056;-75
2023/05/16 13:44:17;;;;;;;4.40;0.70;;;;;;;;;;5046147;28;20078;-74
2023/05/16 13:46:43;;;;;;;0.60;0.60;;;;;;;;;;5028996;28;20088;-74
2023/05/16 13:49:09;;;;;;;1.40;1.08;;;;;;;;;;5028798;28;20030;-75
2023/05/16 13:51:35;;;;;;;0.88;0.75;;;;;;;;;;5016528;28;20076;-75
2023/05/16 13:54:01;;;;;;;0.95;0.60;;;;;;;;;;5024437;28;20067;-74
2023/05/16 13:56:27;;;;;;;1.25;0.75;;;;;;;;;;5024443;28;20018;-74
2023/05/16 13:58:53;;;;;;;1.38;0.77;;;;;;;;;;5034953;28;20036;-75
2023/05/16 14:01:20;;;;;;;0.60;0.60;;;;;;;;;;5028576;28;20044;-75
2023/05/16 14:03:46;;;;;;;0.88;0.73;;;;;;;;;;5024586;28;20167;-74
2023/05/16 14:06:12;;;;;;;0.77;0.63;;;;;;;;;;5034255;28;20025;-76
2023/05/16 14:08:39;;;;;;;0.50;0.50;;;;;;;;;;5026781;28;20044;-75
2023/05/16 14:11:05;;;;;;;0.40;0.40;;;;;;;;;;5030213;28;20017;-74
2023/05/16 14:13:30;;;;;;;1.08;0.77;;;;;;;;;;5041985;28;20078;-74
2023/05/16 14:15:57;;;;;;;1.65;0.40;;;;;;;;;;5028068;28;20033;-75
2023/05/16 14:18:23;;;;;;;1.15;1.02;;;;;;;;;;5026787;28;20037;-75
2023/05/16 14:20:49;;;;;;;0.60;0.50;;;;;;;;;;5024285;28;20033;-76
2023/05/16 14:23:15;;;;;;;0.52;0.52;;;;;;;;;;5022548;28;20033;-76
2023/05/16 14:25:41;;;;;;;0.57;0.57;;;;;;;;;;5022364;28;20044;-73
2023/05/16 14:28:07;;;;;;;0.82;0.75;;;;;;;;;;5032898;28;20025;-73
2023/05/16 14:30:33;;;;;;;0.50;0.50;;;;;;;;;;5031083;28;20030;-73
2023/05/16 14:33:00;;;;;;;0.47;0.47;;;;;;;;;;5036914;28;20017;-74
2023/05/16 14:35:26;;;;;;;0.52;0.50;;;;;;;;;;5034993;28;20022;-73
2023/05/16 14:37:52;;;;;;;2.63;0.93;;;;;;;;;;5021720;28;20071;-73
2023/05/16 14:40:18;;;;;;;0.63;0.60;;;;;;;;;;5029916;28;20487;-72
2023/05/16 14:42:43;;;;;;;0.30;0.30;;;;;;;;;;5036061;28;20476;-72